Time,TemperatureF,DewpointF,PressureIn,WindDirection,WindDirectionDegrees,WindSpeedMPH,WindSpeedGustMPH,Humidity,HourlyPrecipIn,Conditions,Clouds,dailyrainin,SoftwareType,DateUTC
2013-04-30 00:00:00,42.8,21.3,29.92,WNW,299,0.0,0.0,42,0.00,,OVC095,0.00,VWS V14.01,2013-04-30 07:00:00,
2013-04-30 00:05:00,42.8,21.3,29.92,WNW,299,0.0,0.0,42,0.00,,OVC095,0.00,VWS V14.01,2013-04-30 07:05:00,
2013-04-30 00:10:00,42.8,21.3,29.92,WNW,299,0.0,0.0,42,0.00,,OVC095,0.00,VWS V14.01,2013-04-30 07:10:00,
2013-04-30 00:15:00,42.2,20.2,29.92,WNW,299,0.0,0.0,41,0.00,,OVC095,0.00,VWS V14.01,2013-04-30 07:15:00,
2013-04-30 00:21:00,42.2,20.2,29.92,WNW,299,0.0,0.0,41,0.00,,OVC095,0.00,VWS V14.01,2013-04-30 07:21:00,
2013-04-30 00:26:00,42.2,20.2,29.92,WNW,299,0.0,0.0,41,0.00,,OVC095,0.00,VWS V14.01,2013-04-30 07:26:00,
2013-04-30 00:31:00,42.1,20.1,29.92,WNW,299,0.0,0.0,41,0.00,,OVC095,0.00,VWS V14.01,2013-04-30 07:31:00,
2013-04-30 00:36:00,41.8,19.8,29.93,WNW,299,0.0,0.0,41,0.00,,OVC095,0.00,VWS V14.01,2013-04-30 07:36:00,
2013-04-30 00:41:00,41.6,19.7,29.93,WNW,299,0.0,0.0,41,0.00,,OVC095,0.00,VWS V14.01,2013-04-30 07:41:00,
2013-04-30 00:46:00,41.5,19.6,29.93,WNW,299,0.0,0.0,41,0.00,,OVC095,0.00,VWS V14.01,2013-04-30 07:46:00,
2013-04-30 00:51:00,41.3,19.4,29.93,WNW,299,0.0,0.0,41,0.00,,OVC095,0.00,VWS V14.01,2013-04-30 07:51:00,
2013-04-30 00:56:00,41.2,19.3,29.93,WNW,299,0.0,0.0,41,0.00,,OVC095,0.00,VWS V14.01,2013-04-30 07:56:00,
2013-04-30 01:01:00,40.9,22.7,29.93,West,270,0.0,1.0,48,0.00,,OVC100,0.00,VWS V14.01,2013-04-30 08:01:00,
2013-04-30 01:06:00,40.9,22.7,29.93,West,270,0.0,0.0,48,0.00,,OVC100,0.00,VWS V14.01,2013-04-30 08:06:00,
2013-04-30 01:11:00,40.9,22.7,29.93,West,270,0.0,0.0,48,0.00,,OVC100,0.00,VWS V14.01,2013-04-30 08:11:00,
2013-04-30 01:16:00,40.8,23.1,29.93,West,270,0.0,0.0,49,0.00,,OVC100,0.00,VWS V14.01,2013-04-30 08:16:00,
2013-04-30 01:21:00,40.6,23.0,29.94,West,270,0.0,0.0,49,0.00,,OVC100,0.00,VWS V14.01,2013-04-30 08:21:00,
2013-04-30 01:26:00,40.2,22.6,29.94,West,270,0.0,0.0,49,0.00,,OVC100,0.00,VWS V14.01,2013-04-30 08:26:00,
2013-04-30 01:31:00,39.9,22.3,29.94,West,270,0.0,0.0,49,0.00,,OVC100,0.00,VWS V14.01,2013-04-30 08:31:00,
2013-04-30 01:37:00,39.6,22.0,29.94,West,270,0.0,0.0,49,0.00,,OVC100,0.00,VWS V14.01,2013-04-30 08:37:00,
2013-04-30 01:42:00,39.5,23.4,29.94,West,270,0.0,0.0,52,0.00,,OVC100,0.00,VWS V14.01,2013-04-30 08:42:00,
2013-04-30 01:47:00,39.3,22.7,29.94,West,270,0.0,0.0,51,0.00,,OVC100,0.00,VWS V14.01,2013-04-30 08:47:00,
2013-04-30 01:52:00,39.3,22.7,29.94,West,270,0.0,0.0,51,0.00,,OVC100,0.00,VWS V14.01,2013-04-30 08:52:00,
2013-04-30 01:57:00,39.2,22.6,29.94,West,270,0.0,0.0,51,0.00,,OVC100,0.00,VWS V14.01,2013-04-30 08:57:00,
2013-04-30 02:02:00,39.0,22.4,29.94,West,270,0.0,0.0,51,0.00,,OVC085,0.00,VWS V14.01,2013-04-30 09:02:00,
2013-04-30 02:07:00,38.9,22.3,29.94,West,270,0.0,0.0,51,0.00,,OVC085,0.00,VWS V14.01,2013-04-30 09:07:00,
2013-04-30 02:12:00,38.6,22.0,29.94,West,270,0.0,0.0,51,0.00,,OVC085,0.00,VWS V14.01,2013-04-30 09:12:00,
2013-04-30 02:17:00,38.3,21.8,29.94,West,270,0.0,0.0,51,0.00,,OVC085,0.00,VWS V14.01,2013-04-30 09:17:00,
2013-04-30 02:22:00,38.3,21.8,29.94,West,270,0.0,0.0,51,0.00,,OVC085,0.00,VWS V14.01,2013-04-30 09:22:00,
2013-04-30 02:27:00,37.9,21.4,29.94,West,270,0.0,0.0,51,0.00,,OVC085,0.00,VWS V14.01,2013-04-30 09:27:00,
2013-04-30 02:32:00,37.9,21.4,29.95,West,270,0.0,0.0,51,0.00,,OVC085,0.00,VWS V14.01,2013-04-30 09:32:00,
2013-04-30 02:37:00,37.9,21.4,29.95,West,270,0.0,0.0,51,0.00,,OVC085,0.00,VWS V14.01,2013-04-30 09:37:00,
2013-04-30 02:42:00,37.9,21.4,29.95,West,270,0.0,0.0,51,0.00,,OVC085,0.00,VWS V14.01,2013-04-30 09:42:00,
2013-04-30 02:48:00,37.8,21.3,29.95,West,270,0.0,0.0,51,0.00,,OVC085,0.00,VWS V14.01,2013-04-30 09:48:00,
2013-04-30 02:53:00,37.8,21.3,29.95,West,270,0.0,0.0,51,0.00,,OVC085,0.00,VWS V14.01,2013-04-30 09:53:00,
2013-04-30 02:58:00,37.8,21.3,29.95,West,270,0.0,0.0,51,0.00,,OVC085,0.00,VWS V14.01,2013-04-30 09:58:00,
2013-04-30 03:03:00,37.6,21.1,29.96,West,270,0.0,0.0,51,0.00,,OVC085,0.00,VWS V14.01,2013-04-30 10:03:00,
2013-04-30 03:08:00,37.6,21.1,29.96,West,270,0.0,0.0,51,0.00,,OVC085,0.00,VWS V14.01,2013-04-30 10:08:00,
2013-04-30 03:13:00,37.6,22.9,29.96,West,270,0.0,0.0,55,0.00,,OVC085,0.00,VWS V14.01,2013-04-30 10:13:00,
2013-04-30 03:18:00,37.5,22.8,29.96,West,270,0.0,0.0,55,0.00,,OVC085,0.00,VWS V14.01,2013-04-30 10:18:00,
2013-04-30 03:23:00,37.5,22.8,29.96,West,270,0.0,0.0,55,0.00,,OVC085,0.00,VWS V14.01,2013-04-30 10:23:00,
2013-04-30 03:28:00,37.3,22.6,29.96,West,270,0.0,0.0,55,0.00,,OVC085,0.00,VWS V14.01,2013-04-30 10:28:00,
2013-04-30 03:33:00,37.2,22.5,29.96,West,270,0.0,0.0,55,0.00,,OVC085,0.00,VWS V14.01,2013-04-30 10:33:00,
2013-04-30 03:38:00,36.6,22.0,29.96,West,270,0.0,0.0,55,0.00,,OVC085,0.00,VWS V14.01,2013-04-30 10:38:00,
2013-04-30 03:43:00,36.3,21.7,29.96,West,270,0.0,0.0,55,0.00,,OVC085,0.00,VWS V14.01,2013-04-30 10:43:00,
2013-04-30 03:48:00,36.0,23.1,29.96,West,270,0.0,0.0,59,0.00,,OVC085,0.00,VWS V14.01,2013-04-30 10:48:00,
2013-04-30 03:53:00,35.9,23.0,29.96,West,270,0.0,0.0,59,0.00,,OVC085,0.00,VWS V14.01,2013-04-30 10:53:00,
2013-04-30 03:59:00,35.9,23.0,29.96,West,270,0.0,0.0,59,0.00,,OVC085,0.00,VWS V14.01,2013-04-30 10:59:00,
2013-04-30 04:04:00,35.1,22.6,29.96,West,270,0.0,0.0,60,0.00,,BKN085,0.00,VWS V14.01,2013-04-30 11:04:00,
2013-04-30 04:09:00,34.8,22.3,29.96,West,270,0.0,0.0,60,0.00,,BKN085,0.00,VWS V14.01,2013-04-30 11:09:00,
2013-04-30 04:14:00,34.2,21.8,29.96,West,270,0.0,0.0,60,0.00,,BKN085,0.00,VWS V14.01,2013-04-30 11:14:00,
2013-04-30 04:19:00,33.8,21.4,29.97,West,270,0.0,0.0,60,0.00,,BKN085,0.00,VWS V14.01,2013-04-30 11:19:00,
2013-04-30 04:24:00,33.4,21.0,29.97,West,270,0.0,0.0,60,0.00,,BKN085,0.00,VWS V14.01,2013-04-30 11:24:00,
2013-04-30 04:29:00,33.1,20.7,29.97,West,270,0.0,0.0,60,0.00,,BKN085,0.00,VWS V14.01,2013-04-30 11:29:00,
2013-04-30 04:34:00,33.1,20.7,29.97,West,270,0.0,0.0,60,0.00,,BKN085,0.00,VWS V14.01,2013-04-30 11:34:00,
2013-04-30 04:39:00,32.5,20.2,29.97,West,270,0.0,0.0,60,0.00,,BKN085,0.00,VWS V14.01,2013-04-30 11:39:00,
2013-04-30 04:44:00,32.6,22.5,29.97,West,270,0.0,0.0,66,0.00,,BKN085,0.00,VWS V14.01,2013-04-30 11:44:00,
2013-04-30 04:49:00,32.8,22.7,29.98,West,270,0.0,0.0,66,0.00,,BKN085,0.00,VWS V14.01,2013-04-30 11:49:00,
2013-04-30 04:54:00,33.1,23.0,29.98,West,270,0.0,0.0,66,0.00,,BKN085,0.00,VWS V14.01,2013-04-30 11:54:00,
2013-04-30 04:59:00,33.4,23.3,29.98,West,270,0.0,0.0,66,0.00,,BKN085,0.00,VWS V14.01,2013-04-30 11:59:00,
2013-04-30 05:04:00,33.4,23.3,29.99,West,270,0.0,0.0,66,0.00,,BKN075,0.00,VWS V14.01,2013-04-30 12:04:00,
2013-04-30 05:09:00,33.8,23.7,29.99,West,270,0.0,0.0,66,0.00,,BKN075,0.00,VWS V14.01,2013-04-30 12:09:00,
2013-04-30 05:14:00,33.9,23.8,29.99,West,270,0.0,0.0,66,0.00,,BKN075,0.00,VWS V14.01,2013-04-30 12:14:00,
2013-04-30 05:20:00,34.1,24.0,29.99,West,270,0.0,0.0,66,0.00,,BKN075,0.00,VWS V14.01,2013-04-30 12:20:00,
2013-04-30 05:25:00,34.1,24.0,29.99,West,270,0.0,0.0,66,0.00,,BKN075,0.00,VWS V14.01,2013-04-30 12:25:00,
2013-04-30 05:30:00,34.1,24.0,29.99,West,270,0.0,0.0,66,0.00,,BKN075,0.00,VWS V14.01,2013-04-30 12:30:00,
2013-04-30 05:35:00,34.1,23.6,29.99,West,270,0.0,0.0,65,0.00,,BKN075,0.00,VWS V14.01,2013-04-30 12:35:00,
2013-04-30 05:40:00,34.2,23.7,29.99,West,270,0.0,0.0,65,0.00,,BKN075,0.00,VWS V14.01,2013-04-30 12:40:00,
2013-04-30 05:45:00,34.2,23.7,29.99,West,270,0.0,0.0,65,0.00,,BKN075,0.00,VWS V14.01,2013-04-30 12:45:00,
2013-04-30 05:50:00,34.1,23.6,29.99,West,270,0.0,0.0,65,0.00,,BKN075,0.00,VWS V14.01,2013-04-30 12:50:00,
2013-04-30 05:55:00,33.9,23.4,29.99,West,270,0.0,0.0,65,0.00,,BKN075,0.00,VWS V14.01,2013-04-30 12:55:00,
2013-04-30 06:00:00,33.9,23.4,29.99,West,270,0.0,0.0,65,0.00,,BKN075,0.00,VWS V14.01,2013-04-30 13:00:00,
2013-04-30 06:05:00,33.7,23.2,30.00,West,270,0.0,0.0,65,0.00,,BKN090,0.00,VWS V14.01,2013-04-30 13:05:00,
2013-04-30 06:10:00,33.9,23.4,30.00,West,270,0.0,0.0,65,0.00,,BKN090,0.00,VWS V14.01,2013-04-30 13:10:00,
2013-04-30 06:15:00,33.9,23.4,30.00,West,270,0.0,0.0,65,0.00,,BKN090,0.00,VWS V14.01,2013-04-30 13:15:00,
2013-04-30 06:20:00,33.9,24.1,30.00,West,270,0.0,0.0,67,0.00,,BKN090,0.00,VWS V14.01,2013-04-30 13:20:00,
2013-04-30 06:25:00,33.5,23.7,30.00,West,270,0.0,0.0,67,0.00,,BKN090,0.00,VWS V14.01,2013-04-30 13:25:00,
2013-04-30 06:30:00,33.5,24.1,30.00,West,270,0.0,0.0,68,0.00,,BKN090,0.00,VWS V14.01,2013-04-30 13:30:00,
2013-04-30 06:35:00,33.5,24.1,30.01,West,270,0.0,0.0,68,0.00,,BKN090,0.00,VWS V14.01,2013-04-30 13:35:00,
2013-04-30 06:40:00,33.5,24.1,30.01,West,270,0.0,0.0,68,0.00,,BKN090,0.00,VWS V14.01,2013-04-30 13:40:00,
2013-04-30 06:46:00,33.7,24.3,30.01,West,270,0.0,0.0,68,0.00,,BKN090,0.00,VWS V14.01,2013-04-30 13:46:00,
2013-04-30 06:51:00,33.7,24.6,30.02,West,270,0.0,0.0,69,0.00,,BKN090,0.00,VWS V14.01,2013-04-30 13:51:00,
2013-04-30 06:56:00,33.9,24.8,30.02,West,270,0.0,0.0,69,0.00,,BKN090,0.00,VWS V14.01,2013-04-30 13:56:00,
2013-04-30 07:01:00,34.4,25.3,30.02,West,270,0.0,0.0,69,0.00,,FEW090,0.00,VWS V14.01,2013-04-30 14:01:00,
2013-04-30 07:06:00,34.4,25.3,30.02,West,270,0.0,0.0,69,0.00,,FEW090,0.00,VWS V14.01,2013-04-30 14:06:00,
2013-04-30 07:11:00,35.6,26.5,30.02,West,270,0.0,0.0,69,0.00,,FEW090,0.00,VWS V14.01,2013-04-30 14:11:00,
2013-04-30 07:16:00,36.9,27.7,30.02,West,270,0.0,0.0,69,0.00,,FEW090,0.00,VWS V14.01,2013-04-30 14:16:00,
2013-04-30 07:21:00,36.9,26.2,30.03,WNW,302,1.0,1.0,65,0.00,,FEW090,0.00,VWS V14.01,2013-04-30 14:21:00,
2013-04-30 07:26:00,38.0,27.3,30.03,West,267,1.0,1.0,65,0.00,,FEW090,0.00,VWS V14.01,2013-04-30 14:26:00,
2013-04-30 07:31:00,38.6,27.1,30.03,West,267,0.0,0.0,63,0.00,,FEW090,0.00,VWS V14.01,2013-04-30 14:31:00,
2013-04-30 07:36:00,39.0,26.7,30.03,NNE,30,1.0,1.0,61,0.00,,FEW090,0.00,VWS V14.01,2013-04-30 14:36:00,
2013-04-30 07:41:00,39.6,26.5,30.03,SSW,198,0.0,0.0,59,0.00,,FEW090,0.00,VWS V14.01,2013-04-30 14:41:00,
2013-04-30 07:47:00,40.6,27.4,30.03,SSW,198,0.0,0.0,59,0.00,,FEW090,0.00,VWS V14.01,2013-04-30 14:47:00,
2013-04-30 07:52:00,40.9,26.0,30.03,WNW,291,0.0,0.0,55,0.00,,FEW090,0.00,VWS V14.01,2013-04-30 14:52:00,
2013-04-30 07:57:00,41.2,26.3,30.03,WNW,287,2.0,2.0,55,0.00,,FEW090,0.00,VWS V14.01,2013-04-30 14:57:00,
2013-04-30 08:02:00,41.2,25.8,30.03,SSW,192,0.0,0.0,54,0.00,,CLR,0.00,VWS V14.01,2013-04-30 15:02:00,
2013-04-30 08:07:00,41.2,25.4,30.04,South,172,1.0,1.0,53,0.00,,CLR,0.00,VWS V14.01,2013-04-30 15:07:00,
2013-04-30 08:12:00,42.6,26.7,30.04,WSW,239,0.0,0.0,53,0.00,,CLR,0.00,VWS V14.01,2013-04-30 15:12:00,
2013-04-30 08:17:00,42.6,26.7,30.04,West,263,0.0,2.0,53,0.00,,CLR,0.00,VWS V14.01,2013-04-30 15:17:00,
2013-04-30 08:22:00,43.1,27.1,30.04,West,280,2.0,2.0,53,0.00,,CLR,0.00,VWS V14.01,2013-04-30 15:22:00,
2013-04-30 08:27:00,42.6,26.7,30.04,WNW,287,2.0,2.0,53,0.00,,CLR,0.00,VWS V14.01,2013-04-30 15:27:00,
2013-04-30 08:32:00,42.8,26.9,30.04,WSW,240,0.0,0.0,53,0.00,,CLR,0.00,VWS V14.01,2013-04-30 15:32:00,
2013-04-30 08:37:00,43.1,27.1,30.04,West,260,0.0,0.0,53,0.00,,CLR,0.00,VWS V14.01,2013-04-30 15:37:00,
2013-04-30 08:42:00,43.2,27.2,30.04,WSW,257,0.0,1.0,53,0.00,,CLR,0.00,VWS V14.01,2013-04-30 15:42:00,
2013-04-30 08:48:00,43.2,27.2,30.04,WSW,257,0.0,0.0,53,0.00,,CLR,0.00,VWS V14.01,2013-04-30 15:48:00,
2013-04-30 08:53:00,43.2,27.2,30.04,West,274,0.0,0.0,53,0.00,,CLR,0.00,VWS V14.01,2013-04-30 15:53:00,
2013-04-30 08:58:00,43.6,27.6,30.04,WNW,295,5.0,5.0,53,0.00,,CLR,0.00,VWS V14.01,2013-04-30 15:58:00,
2013-04-30 09:03:00,43.6,27.6,30.05,WNW,296,0.0,0.0,53,0.00,,CLR,0.00,VWS V14.01,2013-04-30 16:03:00,
2013-04-30 09:08:00,43.5,27.5,30.05,WSW,253,0.0,1.0,53,0.00,,CLR,0.00,VWS V14.01,2013-04-30 16:08:00,
2013-04-30 09:13:00,43.8,24.9,30.05,WNW,292,0.0,0.0,47,0.00,,CLR,0.00,VWS V14.01,2013-04-30 16:13:00,
2013-04-30 09:18:00,43.8,24.9,30.05,WNW,296,0.0,0.0,47,0.00,,CLR,0.00,VWS V14.01,2013-04-30 16:18:00,
2013-04-30 09:23:00,44.1,25.2,30.05,WNW,296,0.0,0.0,47,0.00,,CLR,0.00,VWS V14.01,2013-04-30 16:23:00,
2013-04-30 09:28:00,44.1,25.2,30.05,WNW,298,0.0,0.0,47,0.00,,CLR,0.00,VWS V14.01,2013-04-30 16:28:00,
2013-04-30 09:33:00,45.1,25.0,30.05,WNW,295,0.0,0.0,45,0.00,,CLR,0.00,VWS V14.01,2013-04-30 16:33:00,
2013-04-30 09:38:00,45.3,25.2,30.05,WNW,292,1.0,1.0,45,0.00,,CLR,0.00,VWS V14.01,2013-04-30 16:38:00,
2013-04-30 09:43:00,45.1,25.0,30.05,WNW,282,1.0,1.0,45,0.00,,CLR,0.00,VWS V14.01,2013-04-30 16:43:00,
2013-04-30 09:49:00,44.9,24.9,30.05,WNW,289,0.0,0.0,45,0.00,,CLR,0.00,VWS V14.01,2013-04-30 16:49:00,
2013-04-30 09:54:00,45.1,25.0,30.05,WNW,291,1.0,1.0,45,0.00,,CLR,0.00,VWS V14.01,2013-04-30 16:54:00,
2013-04-30 09:59:00,45.3,25.8,30.05,West,274,2.0,2.0,46,0.00,,CLR,0.00,VWS V14.01,2013-04-30 16:59:00,
2013-04-30 10:04:00,45.6,26.0,30.05,West,281,1.0,1.0,46,0.00,,CLR,0.00,VWS V14.01,2013-04-30 17:04:00,
2013-04-30 10:09:00,45.6,26.0,30.05,West,268,0.0,0.0,46,0.00,,CLR,0.00,VWS V14.01,2013-04-30 17:09:00,
2013-04-30 10:14:00,47.1,27.4,30.05,NNE,30,0.0,0.0,46,0.00,,CLR,0.00,VWS V14.01,2013-04-30 17:14:00,
2013-04-30 10:19:00,48.1,28.3,30.06,North,0,0.0,0.0,46,0.00,,CLR,0.00,VWS V14.01,2013-04-30 17:19:00,
2013-04-30 10:24:00,47.8,28.0,30.06,West,263,0.0,0.0,46,0.00,,CLR,0.00,VWS V14.01,2013-04-30 17:24:00,
2013-04-30 10:29:00,47.7,28.0,30.06,West,263,0.0,0.0,46,0.00,,CLR,0.00,VWS V14.01,2013-04-30 17:29:00,
2013-04-30 10:34:00,47.2,27.5,30.06,West,263,0.0,0.0,46,0.00,,CLR,0.00,VWS V14.01,2013-04-30 17:34:00,
2013-04-30 10:39:00,47.0,27.3,30.06,West,263,0.0,0.0,46,0.00,,CLR,0.00,VWS V14.01,2013-04-30 17:39:00,
2013-04-30 10:44:00,47.1,23.4,30.06,West,263,0.0,0.0,39,0.00,,CLR,0.00,VWS V14.01,2013-04-30 17:44:00,
2013-04-30 10:50:00,47.2,23.5,30.06,West,264,0.0,0.0,39,0.00,,CLR,0.00,VWS V14.01,2013-04-30 17:50:00,
2013-04-30 10:55:00,47.5,23.8,30.06,ESE,103,1.0,1.0,39,0.00,,CLR,0.00,VWS V14.01,2013-04-30 17:55:00,
2013-04-30 11:00:00,48.3,24.5,30.06,West,277,3.0,3.0,39,0.00,,CLR,0.00,VWS V14.01,2013-04-30 18:00:00,
2013-04-30 11:05:00,49.3,25.4,30.06,ESE,117,0.0,0.0,39,0.00,,OVC110,0.00,VWS V14.01,2013-04-30 18:05:00,
2013-04-30 11:10:00,50.2,26.2,30.06,East,97,0.0,0.0,39,0.00,,OVC110,0.00,VWS V14.01,2013-04-30 18:10:00,
2013-04-30 11:15:00,49.9,26.0,30.06,East,92,0.0,0.0,39,0.00,,OVC110,0.00,VWS V14.01,2013-04-30 18:15:00,
2013-04-30 11:20:00,49.9,26.0,30.06,East,92,0.0,0.0,39,0.00,,OVC110,0.00,VWS V14.01,2013-04-30 18:20:00,
2013-04-30 11:25:00,48.4,24.6,30.06,SW,233,1.0,1.0,39,0.00,,OVC110,0.00,VWS V14.01,2013-04-30 18:25:00,
2013-04-30 11:30:00,48.4,24.6,30.06,WNW,295,2.0,2.0,39,0.00,,OVC110,0.00,VWS V14.01,2013-04-30 18:30:00,
2013-04-30 11:35:00,47.7,24.0,30.07,WSW,253,0.0,0.0,39,0.00,,OVC110,0.00,VWS V14.01,2013-04-30 18:35:00,
2013-04-30 11:40:00,47.7,24.0,30.07,WSW,244,1.0,1.0,39,0.00,,OVC110,0.00,VWS V14.01,2013-04-30 18:40:00,
2013-04-30 11:46:00,48.1,24.3,30.07,West,264,0.0,0.0,39,0.00,,OVC110,0.00,VWS V14.01,2013-04-30 18:46:00,
2013-04-30 11:51:00,48.1,26.1,30.06,WSW,244,1.0,1.0,42,0.00,,OVC110,0.00,VWS V14.01,2013-04-30 18:51:00,
2013-04-30 11:56:00,49.9,27.7,30.06,WNW,282,2.0,2.0,42,0.00,,OVC110,0.00,VWS V14.01,2013-04-30 18:56:00,
2013-04-30 12:01:00,49.6,27.5,30.06,WNW,294,2.0,2.0,42,0.00,,OVC110,0.00,VWS V14.01,2013-04-30 19:01:00,
2013-04-30 12:06:00,49.9,27.7,30.06,West,260,2.0,3.0,42,0.00,,SCT085,0.00,VWS V14.01,2013-04-30 19:06:00,
2013-04-30 12:11:00,49.9,27.7,30.06,NW,319,2.0,2.0,42,0.00,,SCT085,0.00,VWS V14.01,2013-04-30 19:11:00,
2013-04-30 12:16:00,51.2,28.9,30.06,West,263,0.0,0.0,42,0.00,,SCT085,0.00,VWS V14.01,2013-04-30 19:16:00,
2013-04-30 12:21:00,51.2,28.9,30.06,East,88,1.0,1.0,42,0.00,,SCT085,0.00,VWS V14.01,2013-04-30 19:21:00,
2013-04-30 12:26:00,50.4,20.9,30.06,WNW,291,1.0,1.0,31,0.00,,SCT085,0.00,VWS V14.01,2013-04-30 19:26:00,
2013-04-30 12:31:00,49.5,22.3,30.06,WNW,289,3.0,3.0,34,0.00,,SCT085,0.00,VWS V14.01,2013-04-30 19:31:00,
2013-04-30 12:36:00,48.9,21.8,30.06,West,275,3.0,3.0,34,0.00,,SCT085,0.00,VWS V14.01,2013-04-30 19:36:00,
2013-04-30 12:41:00,48.4,21.3,30.06,WNW,284,2.0,2.0,34,0.00,,SCT085,0.00,VWS V14.01,2013-04-30 19:41:00,
2013-04-30 12:46:00,48.4,23.3,30.06,West,275,3.0,3.0,37,0.00,,SCT085,0.00,VWS V14.01,2013-04-30 19:46:00,
2013-04-30 12:51:00,48.6,23.5,30.07,WNW,292,3.0,3.0,37,0.00,,SCT085,0.00,VWS V14.01,2013-04-30 19:51:00,
2013-04-30 12:56:00,48.7,23.6,30.07,West,270,1.0,1.0,37,0.00,,SCT085,0.00,VWS V14.01,2013-04-30 19:56:00,
2013-04-30 13:01:00,49.6,24.4,30.07,WNW,294,0.0,1.0,37,0.00,,BKN085,0.00,VWS V14.01,2013-04-30 20:01:00,
2013-04-30 13:06:00,49.9,25.3,30.07,WNW,296,0.0,0.0,38,0.00,,BKN085,0.00,VWS V14.01,2013-04-30 20:06:00,
2013-04-30 13:11:00,50.8,26.1,30.07,WNW,294,0.0,0.0,38,0.00,,BKN085,0.00,VWS V14.01,2013-04-30 20:11:00,
2013-04-30 13:17:00,51.2,26.5,30.07,WNW,282,0.0,0.0,38,0.00,,BKN085,0.00,VWS V14.01,2013-04-30 20:17:00,
2013-04-30 13:22:00,50.9,26.2,30.07,North,359,0.0,3.0,38,0.00,,BKN085,0.00,VWS V14.01,2013-04-30 20:22:00,
2013-04-30 13:27:00,50.2,23.6,30.07,North,353,0.0,0.0,35,0.00,,BKN085,0.00,VWS V14.01,2013-04-30 20:27:00,
2013-04-30 13:32:00,49.8,23.3,30.07,WNW,289,5.0,5.0,35,0.00,,BKN085,0.00,VWS V14.01,2013-04-30 20:32:00,
2013-04-30 13:37:00,49.8,23.3,30.09,WNW,285,5.0,6.0,35,0.00,,BKN085,0.00,VWS V14.01,2013-04-30 20:37:00,
2013-04-30 13:42:00,44.9,18.9,30.09,West,277,3.0,3.0,35,0.00,,BKN085,0.00,VWS V14.01,2013-04-30 20:42:00,
2013-04-30 13:47:00,43.6,17.8,30.10,WNW,291,3.0,3.0,35,0.00,,BKN085,0.00,VWS V14.01,2013-04-30 20:47:00,
2013-04-30 13:52:00,43.3,27.8,30.10,West,272,0.0,1.0,54,0.00,,BKN085,0.00,VWS V14.01,2013-04-30 20:52:00,
2013-04-30 13:57:00,43.3,27.8,30.10,West,281,1.0,2.0,54,0.00,,BKN085,0.00,VWS V14.01,2013-04-30 20:57:00,
2013-04-30 14:02:00,43.8,26.9,30.10,WNW,295,0.0,0.0,51,0.00,,BKN070,0.00,VWS V14.01,2013-04-30 21:02:00,
2013-04-30 14:07:00,44.1,27.6,30.10,WNW,291,1.0,1.0,52,0.00,,BKN070,0.00,VWS V14.01,2013-04-30 21:07:00,
2013-04-30 14:12:00,46.1,29.5,30.10,West,281,1.0,1.0,52,0.00,,BKN070,0.00,VWS V14.01,2013-04-30 21:12:00,
2013-04-30 14:17:00,47.7,31.0,30.11,West,281,0.0,0.0,52,0.00,,BKN070,0.00,VWS V14.01,2013-04-30 21:17:00,
2013-04-30 14:22:00,49.0,32.2,30.11,WNW,288,2.0,2.0,52,0.00,,BKN070,0.00,VWS V14.01,2013-04-30 21:22:00,
2013-04-30 14:28:00,49.8,32.9,30.11,WNW,288,2.0,2.0,52,0.00,,BKN070,0.00,VWS V14.01,2013-04-30 21:28:00,
2013-04-30 14:33:00,49.9,33.0,30.11,West,267,3.0,3.0,52,0.00,,BKN070,0.00,VWS V14.01,2013-04-30 21:33:00,
2013-04-30 14:38:00,49.3,32.4,30.11,North,350,1.0,6.0,52,0.00,,BKN070,0.00,VWS V14.01,2013-04-30 21:38:00,
2013-04-30 14:43:00,49.6,32.7,30.11,WNW,282,2.0,3.0,52,0.00,,BKN070,0.00,VWS V14.01,2013-04-30 21:43:00,
2013-04-30 14:48:00,50.1,33.2,30.12,West,267,5.0,5.0,52,0.00,,BKN070,0.00,VWS V14.01,2013-04-30 21:48:00,
2013-04-30 14:53:00,50.1,33.2,30.12,NW,305,1.0,1.0,52,0.00,,BKN070,0.00,VWS V14.01,2013-04-30 21:53:00,
2013-04-30 14:58:00,50.1,33.2,30.12,West,271,1.0,1.0,52,0.00,,BKN070,0.00,VWS V14.01,2013-04-30 21:58:00,
2013-04-30 15:03:00,49.2,32.3,30.13,West,265,0.0,0.0,52,0.00,,BKN110,0.00,VWS V14.01,2013-04-30 22:03:00,
2013-04-30 15:08:00,49.2,32.3,30.13,WNW,291,1.0,1.0,52,0.00,,BKN110,0.00,VWS V14.01,2013-04-30 22:08:00,
2013-04-30 15:13:00,46.8,30.1,30.13,West,268,0.0,0.0,52,0.00,,BKN110,0.00,VWS V14.01,2013-04-30 22:13:00,
2013-04-30 15:19:00,46.7,30.0,30.13,WNW,282,1.0,1.0,52,0.00,,BKN110,0.00,VWS V14.01,2013-04-30 22:19:00,
2013-04-30 15:24:00,46.7,30.0,30.13,West,277,1.0,1.0,52,0.00,,BKN110,0.00,VWS V14.01,2013-04-30 22:24:00,
2013-04-30 15:29:00,46.7,30.0,30.13,WNW,289,0.0,0.0,52,0.00,,BKN110,0.00,VWS V14.01,2013-04-30 22:29:00,
2013-04-30 15:34:00,47.1,30.4,30.13,WNW,289,0.0,0.0,52,0.00,,BKN110,0.00,VWS V14.01,2013-04-30 22:34:00,
2013-04-30 15:39:00,47.1,30.4,30.13,West,281,2.0,2.0,52,0.00,,BKN110,0.00,VWS V14.01,2013-04-30 22:39:00,
2013-04-30 15:44:00,48.4,26.4,30.13,West,271,2.0,2.0,42,0.00,,BKN110,0.00,VWS V14.01,2013-04-30 22:44:00,
2013-04-30 15:49:00,48.4,26.4,30.14,West,274,5.0,5.0,42,0.00,,BKN110,0.00,VWS V14.01,2013-04-30 22:49:00,
2013-04-30 15:54:00,49.8,27.6,30.14,West,270,3.0,3.0,42,0.00,,BKN110,0.00,VWS V14.01,2013-04-30 22:54:00,
2013-04-30 15:59:00,49.8,27.6,30.14,West,280,2.0,2.0,42,0.00,,BKN110,0.00,VWS V14.01,2013-04-30 22:59:00,
2013-04-30 16:04:00,50.1,27.9,30.14,WNW,294,1.0,1.0,42,0.00,,BKN060,0.00,VWS V14.01,2013-04-30 23:04:00,
2013-04-30 16:09:00,50.4,28.2,30.14,WSW,256,3.0,3.0,42,0.00,,BKN060,0.00,VWS V14.01,2013-04-30 23:09:00,
2013-04-30 16:14:00,50.4,28.2,30.14,NNW,343,2.0,2.0,42,0.00,,BKN060,0.00,VWS V14.01,2013-04-30 23:14:00,
2013-04-30 16:19:00,50.9,28.6,30.14,West,272,3.0,3.0,42,0.00,,BKN060,0.00,VWS V14.01,2013-04-30 23:19:00,
2013-04-30 16:24:00,50.9,28.6,30.14,West,274,0.0,0.0,42,0.00,,BKN060,0.00,VWS V14.01,2013-04-30 23:24:00,
2013-04-30 16:30:00,50.8,28.5,30.14,West,274,1.0,1.0,42,0.00,,BKN060,0.00,VWS V14.01,2013-04-30 23:30:00,
2013-04-30 16:35:00,50.6,28.4,30.14,West,280,2.0,2.0,42,0.00,,BKN060,0.00,VWS V14.01,2013-04-30 23:35:00,
2013-04-30 16:40:00,50.6,28.4,30.14,WNW,282,0.0,0.0,42,0.00,,BKN060,0.00,VWS V14.01,2013-04-30 23:40:00,
2013-04-30 16:45:00,50.4,28.2,30.14,NNW,347,0.0,0.0,42,0.00,,BKN060,0.00,VWS V14.01,2013-04-30 23:45:00,
2013-04-30 16:50:00,50.6,28.4,30.15,NW,316,0.0,0.0,42,0.00,,BKN060,0.00,VWS V14.01,2013-04-30 23:50:00,
2013-04-30 16:55:00,50.6,28.4,30.15,North,359,0.0,0.0,42,0.00,,BKN060,0.00,VWS V14.01,2013-04-30 23:55:00,
2013-04-30 17:00:00,49.9,27.7,30.15,North,349,0.0,0.0,42,0.00,,BKN060,0.00,VWS V14.01,2013-05-01 00:00:00,
2013-04-30 17:05:00,49.9,27.7,30.15,WNW,287,3.0,3.0,42,0.00,,BKN100,0.00,VWS V14.01,2013-05-01 00:05:00,
2013-04-30 17:10:00,49.9,27.7,30.15,West,271,2.0,2.0,42,0.00,,BKN100,0.00,VWS V14.01,2013-05-01 00:10:00,
2013-04-30 17:15:00,50.8,26.8,30.15,West,274,1.0,1.0,39,0.00,,BKN100,0.00,VWS V14.01,2013-05-01 00:15:00,
2013-04-30 17:20:00,51.5,29.2,30.16,WNW,282,3.0,3.0,42,0.00,,BKN100,0.00,VWS V14.01,2013-05-01 00:20:00,
2013-04-30 17:25:00,51.5,29.2,30.16,North,357,0.0,0.0,42,0.00,,BKN100,0.00,VWS V14.01,2013-05-01 00:25:00,
2013-04-30 17:30:00,52.4,30.0,30.16,NNW,342,0.0,0.0,42,0.00,,BKN100,0.00,VWS V14.01,2013-05-01 00:30:00,
2013-04-30 17:35:00,52.6,30.2,30.16,NNW,342,0.0,0.0,42,0.00,,BKN100,0.00,VWS V14.01,2013-05-01 00:35:00,
2013-04-30 17:40:00,52.6,28.4,30.16,WNW,292,0.0,0.0,39,0.00,,BKN100,0.00,VWS V14.01,2013-05-01 00:40:00,
2013-04-30 17:45:00,52.0,27.8,30.16,West,277,0.0,0.0,39,0.00,,BKN100,0.00,VWS V14.01,2013-05-01 00:45:00,
2013-04-30 17:50:00,51.7,27.6,30.17,West,277,0.0,0.0,39,0.00,,BKN100,0.00,VWS V14.01,2013-05-01 00:50:00,
2013-04-30 17:55:00,51.8,27.6,30.17,South,182,0.0,0.0,39,0.00,,BKN100,0.00,VWS V14.01,2013-05-01 00:55:00,
2013-04-30 18:00:00,51.8,27.6,30.17,South,184,0.0,0.0,39,0.00,,BKN100,0.00,VWS V14.01,2013-05-01 01:00:00,
2013-04-30 18:05:00,52.6,28.4,30.17,West,280,0.0,0.0,39,0.00,,SCT100,0.00,VWS V14.01,2013-05-01 01:05:00,
2013-04-30 18:10:00,52.6,26.4,30.17,WNW,284,0.0,0.0,36,0.00,,SCT100,0.00,VWS V14.01,2013-05-01 01:10:00,
2013-04-30 18:15:00,51.5,25.5,30.17,WNW,284,0.0,0.0,36,0.00,,SCT100,0.00,VWS V14.01,2013-05-01 01:15:00,
2013-04-30 18:20:00,51.2,25.2,30.17,West,264,2.0,2.0,36,0.00,,SCT100,0.00,VWS V14.01,2013-05-01 01:20:00,
2013-04-30 18:25:00,51.2,25.8,30.17,WNW,291,1.0,1.0,37,0.00,,SCT100,0.00,VWS V14.01,2013-05-01 01:25:00,
2013-04-30 18:30:00,50.2,25.0,30.17,WNW,291,0.0,0.0,37,0.00,,SCT100,0.00,VWS V14.01,2013-05-01 01:30:00,
2013-04-30 18:35:00,49.6,24.4,30.18,WNW,291,0.0,0.0,37,0.00,,SCT100,0.00,VWS V14.01,2013-05-01 01:35:00,
2013-04-30 18:40:00,49.6,24.4,30.18,WNW,291,0.0,0.0,37,0.00,,SCT100,0.00,VWS V14.01,2013-05-01 01:40:00,
2013-04-30 18:46:00,49.5,24.3,30.18,West,265,0.0,3.0,37,0.00,,SCT100,0.00,VWS V14.01,2013-05-01 01:46:00,
2013-04-30 18:51:00,49.3,25.4,30.19,West,267,0.0,0.0,39,0.00,,SCT100,0.00,VWS V14.01,2013-05-01 01:51:00,
2013-04-30 18:56:00,49.2,25.3,30.19,North,359,0.0,0.0,39,0.00,,SCT100,0.00,VWS V14.01,2013-05-01 01:56:00,
2013-04-30 19:01:00,49.0,25.1,30.19,North,359,0.0,0.0,39,0.00,,SCT100,0.00,VWS V14.01,2013-05-01 02:01:00,
2013-04-30 19:06:00,49.0,25.1,30.19,North,10,0.0,0.0,39,0.00,,SCT100,0.00,VWS V14.01,2013-05-01 02:06:00,
2013-04-30 19:11:00,48.6,24.8,30.19,North,10,0.0,0.0,39,0.00,,SCT100,0.00,VWS V14.01,2013-05-01 02:11:00,
2013-04-30 19:16:00,48.3,24.5,30.19,North,10,0.0,0.0,39,0.00,,SCT100,0.00,VWS V14.01,2013-05-01 02:16:00,
2013-04-30 19:21:00,48.3,24.5,30.20,North,10,0.0,0.0,39,0.00,,SCT100,0.00,VWS V14.01,2013-05-01 02:21:00,
2013-04-30 19:26:00,47.7,24.0,30.20,North,10,0.0,0.0,39,0.00,,SCT100,0.00,VWS V14.01,2013-05-01 02:26:00,
2013-04-30 19:31:00,47.5,23.8,30.20,North,1,0.0,0.0,39,0.00,,SCT100,0.00,VWS V14.01,2013-05-01 02:31:00,
2013-04-30 19:36:00,47.0,23.3,30.20,North,0,0.0,0.0,39,0.00,,SCT100,0.00,VWS V14.01,2013-05-01 02:36:00,
2013-04-30 19:42:00,47.0,23.3,30.20,North,0,0.0,0.0,39,0.00,,SCT100,0.00,VWS V14.01,2013-05-01 02:42:00,
2013-04-30 19:47:00,46.2,22.6,30.20,North,0,0.0,0.0,39,0.00,,SCT100,0.00,VWS V14.01,2013-05-01 02:47:00,
2013-04-30 19:52:00,45.8,22.3,30.21,North,0,0.0,0.0,39,0.00,,SCT100,0.00,VWS V14.01,2013-05-01 02:52:00,
2013-04-30 19:57:00,45.3,25.8,30.21,North,0,0.0,0.0,46,0.00,,SCT100,0.00,VWS V14.01,2013-05-01 02:57:00,
2013-04-30 20:02:00,44.9,25.4,30.21,North,0,0.0,0.0,46,0.00,,SCT100,0.00,VWS V14.01,2013-05-01 03:02:00,
2013-04-30 20:07:00,44.5,25.5,30.21,North,0,0.0,0.0,47,0.00,,SCT100,0.00,VWS V14.01,2013-05-01 03:07:00,
2013-04-30 20:12:00,44.5,25.5,30.21,North,0,0.0,0.0,47,0.00,,SCT100,0.00,VWS V14.01,2013-05-01 03:12:00,
2013-04-30 20:17:00,43.3,25.9,30.21,North,0,0.0,0.0,50,0.00,,SCT100,0.00,VWS V14.01,2013-05-01 03:17:00,
2013-04-30 20:22:00,43.2,25.8,30.21,North,0,0.0,0.0,50,0.00,,SCT100,0.00,VWS V14.01,2013-05-01 03:22:00,
2013-04-30 20:27:00,42.5,25.2,30.21,North,0,0.0,0.0,50,0.00,,SCT100,0.00,VWS V14.01,2013-05-01 03:27:00,
2013-04-30 20:33:00,42.5,25.2,30.22,North,0,0.0,0.0,50,0.00,,SCT100,0.00,VWS V14.01,2013-05-01 03:33:00,
2013-04-30 20:38:00,41.9,28.2,30.22,North,0,0.0,0.0,58,0.00,,SCT100,0.00,VWS V14.01,2013-05-01 03:38:00,
2013-04-30 20:43:00,41.6,27.9,30.22,North,0,0.0,0.0,58,0.00,,SCT100,0.00,VWS V14.01,2013-05-01 03:43:00,
2013-04-30 20:48:00,41.2,27.6,30.23,North,0,0.0,0.0,58,0.00,,SCT100,0.00,VWS V14.01,2013-05-01 03:48:00,
2013-04-30 20:53:00,40.3,27.5,30.23,North,0,0.0,0.0,60,0.00,,SCT100,0.00,VWS V14.01,2013-05-01 03:53:00,
2013-04-30 20:58:00,39.8,27.1,30.23,North,0,0.0,0.0,60,0.00,,SCT100,0.00,VWS V14.01,2013-05-01 03:58:00,
2013-04-30 21:01:00,39.6,26.9,30.23,North,0,0.0,0.0,60,0.00,,CLR,0.00,VWS V14.01,2013-05-01 04:01:00,
2013-04-30 21:02:00,39.6,26.9,30.23,North,0,0.0,0.0,60,0.00,,CLR,0.00,VWS V14.01,2013-05-01 04:02:00,
2013-04-30 21:03:00,39.2,26.5,30.23,North,0,0.0,0.0,60,0.00,,CLR,0.00,VWS V14.01,2013-05-01 04:03:00,
2013-04-30 21:04:00,39.0,27.9,30.23,North,0,0.0,0.0,64,0.00,,CLR,0.00,VWS V14.01,2013-05-01 04:04:00,
2013-04-30 21:09:00,39.0,28.2,30.23,North,0,0.0,0.0,65,0.00,,CLR,0.00,VWS V14.01,2013-05-01 04:09:00,
2013-04-30 21:14:00,38.0,27.3,30.23,North,0,0.0,0.0,65,0.00,,CLR,0.00,VWS V14.01,2013-05-01 04:14:00,
2013-04-30 21:19:00,38.0,27.7,30.24,North,0,0.0,0.0,66,0.00,,CLR,0.00,VWS V14.01,2013-05-01 04:19:00,
2013-04-30 21:24:00,37.3,27.0,30.24,North,0,0.0,0.0,66,0.00,,CLR,0.00,VWS V14.01,2013-05-01 04:24:00,
2013-04-30 21:30:00,37.0,26.7,30.24,North,0,0.0,0.0,66,0.00,,CLR,0.00,VWS V14.01,2013-05-01 04:30:00,
2013-04-30 21:35:00,36.9,26.6,30.25,North,0,0.0,0.0,66,0.00,,CLR,0.00,VWS V14.01,2013-05-01 04:35:00,
2013-04-30 21:40:00,36.3,26.8,30.25,North,0,0.0,0.0,68,0.00,,CLR,0.00,VWS V14.01,2013-05-01 04:40:00,
2013-04-30 21:45:00,35.6,26.1,30.25,North,0,0.0,0.0,68,0.00,,CLR,0.00,VWS V14.01,2013-05-01 04:45:00,
2013-04-30 21:50:00,35.3,25.8,30.25,North,0,0.0,0.0,68,0.00,,CLR,0.00,VWS V14.01,2013-05-01 04:50:00,
2013-04-30 21:55:00,35.0,25.5,30.25,North,0,0.0,0.0,68,0.00,,CLR,0.00,VWS V14.01,2013-05-01 04:55:00,
2013-04-30 22:00:00,34.7,25.2,30.25,North,0,0.0,0.0,68,0.00,,CLR,0.00,VWS V14.01,2013-05-01 05:00:00,
2013-04-30 22:05:00,34.5,25.0,30.25,North,0,0.0,0.0,68,0.00,,CLR,0.00,VWS V14.01,2013-05-01 05:05:00,
2013-04-30 22:10:00,34.4,25.0,30.25,North,0,0.0,0.0,68,0.00,,CLR,0.00,VWS V14.01,2013-05-01 05:10:00,
2013-04-30 22:15:00,33.9,24.5,30.25,North,0,0.0,0.0,68,0.00,,CLR,0.00,VWS V14.01,2013-05-01 05:15:00,
2013-04-30 22:21:00,33.7,24.3,30.26,North,0,0.0,0.0,68,0.00,,CLR,0.00,VWS V14.01,2013-05-01 05:21:00,
2013-04-30 22:26:00,33.5,24.1,30.26,North,0,0.0,0.0,68,0.00,,CLR,0.00,VWS V14.01,2013-05-01 05:26:00,
2013-04-30 22:31:00,33.5,24.1,30.26,North,0,0.0,0.0,68,0.00,,CLR,0.00,VWS V14.01,2013-05-01 05:31:00,
2013-04-30 22:36:00,33.5,24.1,30.27,North,0,0.0,0.0,68,0.00,,CLR,0.00,VWS V14.01,2013-05-01 05:36:00,
2013-04-30 22:41:00,33.4,26.3,30.27,North,0,0.0,0.0,75,0.00,,CLR,0.00,VWS V14.01,2013-05-01 05:41:00,
2013-04-30 22:46:00,33.2,26.1,30.27,North,3,0.0,0.0,75,0.00,,CLR,0.00,VWS V14.01,2013-05-01 05:46:00,
2013-04-30 22:51:00,33.1,26.0,30.27,North,3,0.0,0.0,75,0.00,,CLR,0.00,VWS V14.01,2013-05-01 05:51:00,
2013-04-30 22:56:00,32.8,26.1,30.27,North,3,0.0,0.0,76,0.00,,CLR,0.00,VWS V14.01,2013-05-01 05:56:00,
2013-04-30 23:01:00,32.6,25.9,30.27,North,3,0.0,0.0,76,0.00,,CLR,0.00,VWS V14.01,2013-05-01 06:01:00,
2013-04-30 23:06:00,32.5,26.7,30.28,North,3,0.0,0.0,79,0.00,,CLR,0.00,VWS V14.01,2013-05-01 06:06:00,
2013-04-30 23:11:00,32.3,26.5,30.28,North,3,0.0,0.0,79,0.00,,CLR,0.00,VWS V14.01,2013-05-01 06:11:00,
2013-04-30 23:17:00,32.3,26.5,30.28,North,3,0.0,0.0,79,0.00,,CLR,0.00,VWS V14.01,2013-05-01 06:17:00,
2013-04-30 23:22:00,32.5,27.0,30.28,North,3,0.0,0.0,80,0.00,,CLR,0.00,VWS V14.01,2013-05-01 06:22:00,
2013-04-30 23:27:00,32.3,26.8,30.28,North,3,0.0,0.0,80,0.00,,CLR,0.00,VWS V14.01,2013-05-01 06:27:00,
2013-04-30 23:32:00,32.3,26.8,30.28,North,3,0.0,0.0,80,0.00,,CLR,0.00,VWS V14.01,2013-05-01 06:32:00,
2013-04-30 23:37:00,32.3,26.8,30.28,North,3,0.0,0.0,80,0.00,,CLR,0.00,VWS V14.01,2013-05-01 06:37:00,
2013-04-30 23:42:00,32.2,26.4,30.28,North,3,0.0,0.0,79,0.00,,CLR,0.00,VWS V14.01,2013-05-01 06:42:00,
2013-04-30 23:47:00,31.7,26.2,30.28,North,3,0.0,0.0,80,0.00,,CLR,0.00,VWS V14.01,2013-05-01 06:47:00,
2013-04-30 23:52:00,31.6,26.1,30.29,North,3,0.0,0.0,80,0.00,,CLR,0.00,VWS V14.01,2013-05-01 06:52:00,
2013-04-30 23:57:00,31.4,26.0,30.29,North,3,0.0,0.0,80,0.00,,CLR,0.00,VWS V14.01,2013-05-01 06:57:00,